createdAt,value
2022-08-31T10:35:56.973Z,16800.00
2022-08-31T10:36:56.959Z,17216.00
2022-08-31T10:37:56.942Z,17632.00
2022-08-31T10:38:56.925Z,17824.00
2022-08-31T10:39:56.908Z,17888.00
2022-08-31T10:40:56.898Z,17920.00
2022-08-31T10:41:56.879Z,17984.00
2022-08-31T10:42:56.859Z,18048.00
2022-08-31T10:43:56.843Z,18208.00
2022-08-31T10:44:56.846Z,18464.00
2022-08-31T10:45:56.858Z,18848.00
2022-08-31T10:46:56.807Z,19296.00
2022-08-31T10:47:56.789Z,19680.00
2022-08-31T10:48:56.779Z,20128.00
2022-08-31T10:49:56.759Z,20224.00
2022-08-31T10:50:56.768Z,20352.00
2022-08-31T10:51:56.751Z,20384.00
2022-08-31T10:53:01.841Z,20320.00
2022-08-31T10:53:56.711Z,20224.00
2022-08-31T10:54:56.692Z,20256.00
2022-08-31T10:55:56.691Z,20224.00
2022-08-31T10:56:56.670Z,20192.00
2022-08-31T10:57:56.650Z,20192.00
2022-08-31T10:58:56.637Z,20224.00
2022-08-31T10:59:56.626Z,20064.00
2022-08-31T11:00:56.667Z,20128.00
2022-08-31T11:01:56.610Z,20192.00
2022-08-31T11:02:56.586Z,20160.00
2022-08-31T11:03:56.587Z,20000.00
2022-08-31T11:04:56.624Z,19776.00
2022-08-31T11:05:56.593Z,19456.00
2022-08-31T11:06:56.536Z,19104.00
2022-08-31T11:07:56.550Z,18848.00
2022-08-31T11:08:56.518Z,18624.00
2022-08-31T11:09:56.497Z,18400.00
2022-08-31T11:10:56.492Z,18208.00
2022-08-31T11:11:56.490Z,18240.00
2022-08-31T11:12:57.593Z,18304.00
2022-08-31T11:13:56.450Z,18400.00
2022-08-31T11:14:56.447Z,18432.00
2022-08-31T11:15:56.471Z,18304.00
2022-08-31T11:16:56.429Z,18080.00
2022-08-31T11:17:56.391Z,17536.00
2022-08-31T11:18:56.385Z,16768.00
2022-08-31T11:19:56.379Z,16052.00
2022-08-31T11:20:56.354Z,15732.00
2022-08-31T11:21:56.356Z,15824.00
2022-08-31T11:22:56.328Z,16112.00
2022-08-31T11:23:56.328Z,16208.00
2022-08-31T11:24:56.305Z,16280.00
2022-08-31T11:25:56.293Z,16512.00
2022-08-31T11:26:56.298Z,16576.00
2022-08-31T11:27:56.270Z,16512.00
2022-08-31T11:28:56.257Z,16576.00
2022-08-31T11:29:56.234Z,16736.00
2022-08-31T11:30:56.327Z,16960.00
2022-08-31T11:31:56.227Z,17184.00
2022-08-31T11:32:56.198Z,17280.00
2022-08-31T11:34:15.055Z,17280.00
2022-08-31T11:34:56.172Z,17056.00
2022-08-31T11:35:56.170Z,16960.00
2022-08-31T11:36:56.163Z,17632.00
2022-08-31T11:37:56.231Z,17536.00
2022-08-31T11:38:56.129Z,17024.00
2022-08-31T11:39:56.120Z,16288.00
2022-08-31T11:40:56.099Z,15500.00
2022-08-31T11:41:56.164Z,15096.00
2022-08-31T11:42:56.075Z,14784.00
2022-08-31T11:43:56.055Z,14584.00
2022-08-31T11:44:56.041Z,14564.00
2022-08-31T11:45:56.107Z,14736.00
2022-08-31T11:46:56.028Z,14996.00
2022-08-31T11:47:56.014Z,15204.00
2022-08-31T11:48:56.005Z,15308.00
2022-08-31T11:49:55.979Z,15256.00
2022-08-31T11:50:55.970Z,15128.00
2022-08-31T11:51:55.965Z,15012.00
2022-08-31T11:52:55.946Z,15024.00
2022-08-31T11:53:55.936Z,15152.00
2022-08-31T11:54:55.925Z,15400.00
2022-08-31T11:55:55.913Z,15852.00
2022-08-31T11:56:55.911Z,16576.00
2022-08-31T11:57:55.875Z,17056.00
2022-08-31T11:58:55.863Z,17440.00
2022-08-31T11:59:55.853Z,17792.00
2022-08-31T12:00:55.851Z,18144.00
2022-08-31T12:01:55.851Z,18432.00
2022-08-31T12:02:55.859Z,18688.00
2022-08-31T12:03:55.800Z,18912.00
2022-08-31T12:04:55.836Z,19104.00
2022-08-31T12:05:55.785Z,19232.00
2022-08-31T12:06:55.776Z,19520.00
2022-08-31T12:07:55.758Z,19808.00
2022-08-31T12:08:55.737Z,20416.00
2022-08-31T12:09:55.725Z,20768.00
2022-08-31T12:10:55.721Z,21152.00
2022-08-31T12:11:55.724Z,21536.00
2022-08-31T12:12:55.698Z,21888.00
2022-08-31T12:13:55.689Z,22272.00
2022-08-31T12:14:55.666Z,22432.00
2022-08-31T12:15:55.685Z,22560.00
2022-08-31T12:16:55.653Z,21824.00
2022-08-31T12:17:55.637Z,21376.00
2022-08-31T12:18:55.614Z,20800.00
2022-08-31T12:19:59.116Z,20320.00
2022-08-31T12:20:55.597Z,19840.00
2022-08-31T12:21:55.589Z,19008.00
2022-08-31T12:22:55.575Z,18080.00
2022-08-31T12:23:55.556Z,17088.00
2022-08-31T12:24:55.553Z,15868.00
2022-08-31T12:25:55.542Z,14904.00
2022-08-31T12:26:55.529Z,13928.00
2022-08-31T12:27:55.506Z,13148.00
2022-08-31T12:28:55.493Z,12592.00
2022-08-31T12:33:27.162Z,11748.00
2022-08-31T12:34:27.121Z,13496.00
2022-08-31T12:35:27.098Z,14576.00
2022-08-31T12:36:27.100Z,17408.00
2022-08-31T12:37:27.079Z,16416.00
2022-08-31T12:38:27.066Z,16832.00
2022-08-31T12:39:27.060Z,15296.00
2022-08-31T12:40:27.110Z,15352.00
2022-08-31T12:41:27.042Z,16564.00
2022-08-31T12:42:27.036Z,16496.00
2022-08-31T12:43:27.013Z,17664.00
2022-08-31T12:44:26.989Z,16400.00
2022-08-31T12:45:26.976Z,18432.00
2022-08-31T12:46:27.034Z,18688.00
2022-08-31T12:47:26.953Z,18528.00
2022-08-31T12:48:26.950Z,18880.00
2022-08-31T12:49:26.945Z,19264.00
2022-08-31T12:50:26.918Z,19808.00
2022-08-31T12:51:26.916Z,20704.00
2022-08-31T12:52:26.896Z,22112.00
2022-08-31T12:53:26.890Z,23872.00
2022-08-31T12:54:26.871Z,21856.00
2022-08-31T12:55:26.859Z,21824.00
2022-08-31T12:56:26.872Z,19488.00
2022-08-31T12:57:27.125Z,18048.00
2022-08-31T12:58:26.832Z,16844.00
2022-08-31T12:59:40.717Z,16628.00
2022-08-31T13:00:26.808Z,18240.00
2022-08-31T13:01:26.927Z,20800.00
2022-08-31T13:02:27.023Z,20672.00
2022-08-31T13:03:26.774Z,27808.00
2022-08-31T13:04:26.772Z,27328.00
2022-08-31T13:05:26.761Z,25344.00
2022-08-31T13:06:26.748Z,26656.00
2022-08-31T13:07:26.741Z,33984.00
2022-08-31T13:08:26.718Z,41952.00
2022-08-31T13:09:26.718Z,51168.00
2022-08-31T13:10:26.697Z,57984.00
2022-08-31T13:11:33.109Z,58624.00
2022-08-31T13:12:26.685Z,17824.00
2022-08-31T13:13:26.664Z,15048.00
2022-08-31T13:36:47.753Z,39904.00
2022-08-31T13:37:47.731Z,69376.00
2022-08-31T13:38:47.727Z,78528.00
2022-08-31T13:39:47.704Z,82848.00
2022-08-31T13:40:47.739Z,80416.00
2022-08-31T13:41:47.702Z,79296.00
2022-08-31T13:42:47.675Z,78880.00
2022-08-31T13:43:47.654Z,80128.00
2022-08-31T13:44:47.649Z,77632.00
2022-08-31T13:45:47.684Z,74144.00
2022-08-31T13:46:47.669Z,74528.00
2022-08-31T13:47:57.059Z,77248.00
2022-08-31T13:48:47.606Z,75680.00
2022-08-31T13:49:47.598Z,74720.00
2022-08-31T13:50:51.919Z,73280.00
2022-08-31T13:51:47.586Z,73632.00
2022-08-31T13:52:59.513Z,70400.00
2022-08-31T13:53:47.554Z,69920.00
2022-08-31T13:54:47.542Z,65984.00
2022-08-31T13:55:47.529Z,70336.00
2022-08-31T13:56:47.534Z,28704.00
2022-08-31T13:57:47.527Z,64064.00
2022-08-31T13:58:47.493Z,71008.00
2022-08-31T13:59:47.487Z,70624.00
2022-08-31T14:00:47.590Z,69120.00
2022-08-31T14:01:47.493Z,67872.00
2022-08-31T14:02:47.509Z,72096.00
2022-08-31T14:03:47.454Z,73792.00
2022-08-31T14:04:47.451Z,70944.00
2022-08-31T14:05:47.442Z,74176.00
2022-08-31T14:06:47.448Z,74336.00
2022-08-31T14:07:47.431Z,69984.00
2022-08-31T14:08:47.415Z,71744.00
2022-08-31T14:09:47.404Z,70016.00
2022-08-31T14:10:47.394Z,65312.00
2022-08-31T14:11:47.407Z,67808.00
2022-08-31T14:12:47.389Z,69536.00
2022-08-31T14:13:47.366Z,56640.00
2022-08-31T14:14:47.361Z,69792.00
2022-08-31T14:15:47.364Z,70816.00
2022-08-31T14:16:52.339Z,69568.00
2022-08-31T14:18:24.027Z,67584.00
2022-08-31T14:18:47.345Z,68768.00
2022-08-31T14:19:47.336Z,70112.00
2022-08-31T14:21:10.246Z,69632.00
2022-08-31T14:21:47.315Z,68160.00
2022-08-31T14:22:47.324Z,66880.00
2022-08-31T14:23:47.299Z,64288.00
2022-08-31T14:24:47.302Z,65504.00
2022-08-31T14:25:47.285Z,65760.00
2022-08-31T14:26:47.277Z,62592.00
2022-08-31T14:27:47.278Z,60192.00
2022-08-31T14:28:47.262Z,61024.00
2022-08-31T14:29:47.272Z,62880.00
2022-08-31T14:30:47.293Z,62720.00
2022-08-31T14:31:47.248Z,61056.00
2022-08-31T14:32:47.261Z,60736.00
2022-08-31T14:33:47.235Z,61056.00
2022-08-31T14:34:47.238Z,60256.00
2022-08-31T14:35:47.221Z,60800.00
2022-08-31T14:36:47.281Z,62848.00
2022-08-31T14:37:47.217Z,30144.00
2022-08-31T14:38:47.202Z,17952.00
2022-08-31T14:44:51.916Z,15944.00
2022-08-31T14:45:51.926Z,30400.00
2022-08-31T14:46:51.914Z,25344.00
2022-08-31T14:47:51.898Z,19168.00
2022-08-31T14:48:51.873Z,19776.00
2022-08-31T14:49:51.863Z,19040.00
2022-08-31T14:52:10.319Z,14284.00
2022-08-31T15:41:24.916Z,24704.00
2022-08-31T15:42:24.911Z,25920.00
2022-08-31T16:00:22.469Z,31360.00
2022-08-31T16:01:22.552Z,30112.00
2022-08-31T16:02:22.482Z,29536.00
2022-08-31T16:03:22.420Z,29056.00
2022-08-31T16:04:22.410Z,27296.00
2022-08-31T16:05:22.407Z,22944.00
2022-08-31T16:06:22.405Z,19552.00
2022-08-31T16:09:15.420Z,19040.00
2022-08-31T16:10:19.753Z,17440.00
